sensor_id;sensor_type;location;lat;lon;timestamp;temperature;humidity
45807;DHT22;31507;51.494;7.518;2023-09-30T00:02:06;11.40;99.90
45807;DHT22;31507;51.494;7.518;2023-09-30T00:04:32;11.30;99.90
45807;DHT22;31507;51.494;7.518;2023-09-30T00:06:58;11.30;99.90
45807;DHT22;31507;51.494;7.518;2023-09-30T00:09:23;11.30;99.90
45807;DHT22;31507;51.494;7.518;2023-09-30T00:11:49;11.30;99.90
45807;DHT22;31507;51.494;7.518;2023-09-30T00:14:14;11.20;99.90
45807;DHT22;31507;51.494;7.518;2023-09-30T00:16:40;11.20;99.90
45807;DHT22;31507;51.494;7.518;2023-09-30T00:19:05;11.20;99.90
45807;DHT22;31507;51.494;7.518;2023-09-30T00:21:31;11.20;99.90
45807;DHT22;31507;51.494;7.518;2023-09-30T00:23:56;11.20;99.90
45807;DHT22;31507;51.494;7.518;2023-09-30T00:26:22;11.20;99.90
45807;DHT22;31507;51.494;7.518;2023-09-30T00:28:48;11.20;99.90
45807;DHT22;31507;51.494;7.518;2023-09-30T00:31:13;11.10;99.90
45807;DHT22;31507;51.494;7.518;2023-09-30T00:33:39;11.10;99.90
45807;DHT22;31507;51.494;7.518;2023-09-30T00:36:08;11.10;99.90
45807;DHT22;31507;51.494;7.518;2023-09-30T00:38:34;11.10;99.90
45807;DHT22;31507;51.494;7.518;2023-09-30T00:41:00;11.10;99.90
45807;DHT22;31507;51.494;7.518;2023-09-30T00:43:25;11.10;99.90
45807;DHT22;31507;51.494;7.518;2023-09-30T00:45:51;11.20;99.90
45807;DHT22;31507;51.494;7.518;2023-09-30T00:48:22;11.20;99.90
45807;DHT22;31507;51.494;7.518;2023-09-30T00:50:48;11.20;99.90
45807;DHT22;31507;51.494;7.518;2023-09-30T00:53:13;11.20;99.90
45807;DHT22;31507;51.494;7.518;2023-09-30T00:55:39;11.20;99.90
45807;DHT22;31507;51.494;7.518;2023-09-30T00:58:05;11.20;99.90
45807;DHT22;31507;51.494;7.518;2023-09-30T01:00:31;11.20;99.90
45807;DHT22;31507;51.494;7.518;2023-09-30T01:02:56;11.20;99.90
45807;DHT22;31507;51.494;7.518;2023-09-30T01:05:24;11.20;99.90
45807;DHT22;31507;51.494;7.518;2023-09-30T01:07:50;11.20;99.90
45807;DHT22;31507;51.494;7.518;2023-09-30T01:10:15;11.20;99.90
45807;DHT22;31507;51.494;7.518;2023-09-30T01:12:42;11.20;99.90
45807;DHT22;31507;51.494;7.518;2023-09-30T01:15:13;11.20;99.90
45807;DHT22;31507;51.494;7.518;2023-09-30T01:17:39;11.20;99.90
45807;DHT22;31507;51.494;7.518;2023-09-30T01:20:05;11.20;99.90
45807;DHT22;31507;51.494;7.518;2023-09-30T01:22:32;11.10;99.90
45807;DHT22;31507;51.494;7.518;2023-09-30T01:24:58;11.20;99.90
45807;DHT22;31507;51.494;7.518;2023-09-30T01:27:23;11.20;99.90
45807;DHT22;31507;51.494;7.518;2023-09-30T01:29:50;11.20;99.90
45807;DHT22;31507;51.494;7.518;2023-09-30T01:32:16;11.20;99.90
45807;DHT22;31507;51.494;7.518;2023-09-30T01:34:41;11.20;99.90
45807;DHT22;31507;51.494;7.518;2023-09-30T01:37:07;11.20;99.90
45807;DHT22;31507;51.494;7.518;2023-09-30T01:39:32;11.30;99.90
45807;DHT22;31507;51.494;7.518;2023-09-30T01:41:59;11.20;99.90
45807;DHT22;31507;51.494;7.518;2023-09-30T01:44:24;11.30;99.90
45807;DHT22;31507;51.494;7.518;2023-09-30T01:46:51;11.30;99.90
45807;DHT22;31507;51.494;7.518;2023-09-30T01:49:16;11.30;99.90
45807;DHT22;31507;51.494;7.518;2023-09-30T01:51:43;11.30;99.90
45807;DHT22;31507;51.494;7.518;2023-09-30T01:54:09;11.20;99.90
45807;DHT22;31507;51.494;7.518;2023-09-30T01:56:35;11.20;99.90
45807;DHT22;31507;51.494;7.518;2023-09-30T01:59:01;11.20;99.90
45807;DHT22;31507;51.494;7.518;2023-09-30T02:01:26;11.20;99.90
45807;DHT22;31507;51.494;7.518;2023-09-30T02:03:52;11.20;99.90
45807;DHT22;31507;51.494;7.518;2023-09-30T02:06:17;11.20;99.90
45807;DHT22;31507;51.494;7.518;2023-09-30T02:08:43;11.30;99.90
45807;DHT22;31507;51.494;7.518;2023-09-30T02:11:10;11.30;99.90
45807;DHT22;31507;51.494;7.518;2023-09-30T02:13:35;11.30;99.90
45807;DHT22;31507;51.494;7.518;2023-09-30T02:16:01;11.40;99.90
45807;DHT22;31507;51.494;7.518;2023-09-30T02:18:27;11.40;99.90
45807;DHT22;31507;51.494;7.518;2023-09-30T02:20:52;11.40;99.90
45807;DHT22;31507;51.494;7.518;2023-09-30T02:23:18;11.40;99.90
45807;DHT22;31507;51.494;7.518;2023-09-30T02:25:44;11.40;99.90
45807;DHT22;31507;51.494;7.518;2023-09-30T02:28:09;11.40;99.90
45807;DHT22;31507;51.494;7.518;2023-09-30T02:30:36;11.40;99.90
45807;DHT22;31507;51.494;7.518;2023-09-30T02:33:02;11.40;99.90
45807;DHT22;31507;51.494;7.518;2023-09-30T02:35:28;11.30;99.90
45807;DHT22;31507;51.494;7.518;2023-09-30T02:37:54;11.30;99.90
45807;DHT22;31507;51.494;7.518;2023-09-30T02:40:19;11.30;99.90
45807;DHT22;31507;51.494;7.518;2023-09-30T02:42:45;11.20;99.90
45807;DHT22;31507;51.494;7.518;2023-09-30T02:45:11;11.20;99.90
45807;DHT22;31507;51.494;7.518;2023-09-30T02:47:37;11.20;99.90
45807;DHT22;31507;51.494;7.518;2023-09-30T02:50:04;11.20;99.90
45807;DHT22;31507;51.494;7.518;2023-09-30T02:52:30;11.10;99.90
45807;DHT22;31507;51.494;7.518;2023-09-30T02:54:56;11.20;99.90
45807;DHT22;31507;51.494;7.518;2023-09-30T02:57:24;11.20;99.90
45807;DHT22;31507;51.494;7.518;2023-09-30T02:59:50;11.10;99.90
45807;DHT22;31507;51.494;7.518;2023-09-30T03:02:25;11.10;99.90
45807;DHT22;31507;51.494;7.518;2023-09-30T03:04:51;11.10;99.90
45807;DHT22;31507;51.494;7.518;2023-09-30T03:07:20;11.10;99.90
45807;DHT22;31507;51.494;7.518;2023-09-30T03:09:46;11.10;99.90
45807;DHT22;31507;51.494;7.518;2023-09-30T03:12:12;11.00;99.90
45807;DHT22;31507;51.494;7.518;2023-09-30T03:14:38;11.00;99.90
45807;DHT22;31507;51.494;7.518;2023-09-30T03:17:03;11.00;99.90
45807;DHT22;31507;51.494;7.518;2023-09-30T03:19:28;10.90;99.90
45807;DHT22;31507;51.494;7.518;2023-09-30T03:21:54;10.90;99.90
45807;DHT22;31507;51.494;7.518;2023-09-30T03:24:19;10.90;99.90
45807;DHT22;31507;51.494;7.518;2023-09-30T03:26:46;10.80;99.90
45807;DHT22;31507;51.494;7.518;2023-09-30T03:29:12;10.90;99.90
45807;DHT22;31507;51.494;7.518;2023-09-30T03:31:37;10.90;99.90
45807;DHT22;31507;51.494;7.518;2023-09-30T03:34:03;10.90;99.90
45807;DHT22;31507;51.494;7.518;2023-09-30T03:36:29;10.90;99.90
45807;DHT22;31507;51.494;7.518;2023-09-30T03:38:55;11.00;99.90
45807;DHT22;31507;51.494;7.518;2023-09-30T03:41:24;10.90;99.90
45807;DHT22;31507;51.494;7.518;2023-09-30T03:43:50;10.90;99.90
45807;DHT22;31507;51.494;7.518;2023-09-30T03:46:16;10.80;99.90
45807;DHT22;31507;51.494;7.518;2023-09-30T03:48:42;10.80;99.90
45807;DHT22;31507;51.494;7.518;2023-09-30T03:51:10;10.70;99.90
45807;DHT22;31507;51.494;7.518;2023-09-30T03:53:39;10.70;99.90
45807;DHT22;31507;51.494;7.518;2023-09-30T03:56:05;10.70;99.90
45807;DHT22;31507;51.494;7.518;2023-09-30T03:58:32;10.70;99.90
45807;DHT22;31507;51.494;7.518;2023-09-30T04:00:57;10.60;99.90
45807;DHT22;31507;51.494;7.518;2023-09-30T04:03:23;10.60;99.90
45807;DHT22;31507;51.494;7.518;2023-09-30T04:05:48;10.60;99.90
45807;DHT22;31507;51.494;7.518;2023-09-30T04:08:16;10.70;99.90
45807;DHT22;31507;51.494;7.518;2023-09-30T04:10:42;10.70;99.90
45807;DHT22;31507;51.494;7.518;2023-09-30T04:13:09;10.60;99.90
45807;DHT22;31507;51.494;7.518;2023-09-30T04:15:36;10.60;99.90
45807;DHT22;31507;51.494;7.518;2023-09-30T04:18:03;10.60;99.90
45807;DHT22;31507;51.494;7.518;2023-09-30T04:20:30;10.50;99.90
45807;DHT22;31507;51.494;7.518;2023-09-30T04:22:56;10.50;99.90
45807;DHT22;31507;51.494;7.518;2023-09-30T04:25:22;10.50;99.90
45807;DHT22;31507;51.494;7.518;2023-09-30T04:27:50;10.50;99.90
45807;DHT22;31507;51.494;7.518;2023-09-30T04:30:15;10.40;99.90
45807;DHT22;31507;51.494;7.518;2023-09-30T04:32:42;10.40;99.90
45807;DHT22;31507;51.494;7.518;2023-09-30T04:35:07;10.40;99.90
45807;DHT22;31507;51.494;7.518;2023-09-30T04:37:33;10.40;99.90
45807;DHT22;31507;51.494;7.518;2023-09-30T04:39:59;10.40;99.90
45807;DHT22;31507;51.494;7.518;2023-09-30T04:42:25;10.30;99.90
45807;DHT22;31507;51.494;7.518;2023-09-30T04:44:51;10.30;99.90
45807;DHT22;31507;51.494;7.518;2023-09-30T04:47:16;10.30;99.90
45807;DHT22;31507;51.494;7.518;2023-09-30T04:49:44;10.30;99.90
45807;DHT22;31507;51.494;7.518;2023-09-30T04:52:09;10.30;99.90
45807;DHT22;31507;51.494;7.518;2023-09-30T04:54:35;10.30;99.90
45807;DHT22;31507;51.494;7.518;2023-09-30T04:57:01;10.30;99.90
45807;DHT22;31507;51.494;7.518;2023-09-30T04:59:27;10.30;99.90
45807;DHT22;31507;51.494;7.518;2023-09-30T05:01:53;10.30;99.90
45807;DHT22;31507;51.494;7.518;2023-09-30T05:04:18;10.30;99.90
45807;DHT22;31507;51.494;7.518;2023-09-30T05:06:44;10.30;99.90
45807;DHT22;31507;51.494;7.518;2023-09-30T05:09:09;10.20;99.90
45807;DHT22;31507;51.494;7.518;2023-09-30T05:11:35;10.20;99.90
45807;DHT22;31507;51.494;7.518;2023-09-30T05:14:00;10.30;99.90
45807;DHT22;31507;51.494;7.518;2023-09-30T05:16:26;10.20;99.90
45807;DHT22;31507;51.494;7.518;2023-09-30T05:18:52;10.30;99.90
45807;DHT22;31507;51.494;7.518;2023-09-30T05:21:17;10.20;99.90
45807;DHT22;31507;51.494;7.518;2023-09-30T05:23:43;10.20;99.90
45807;DHT22;31507;51.494;7.518;2023-09-30T05:26:09;10.20;99.90
45807;DHT22;31507;51.494;7.518;2023-09-30T05:28:34;10.20;99.90
45807;DHT22;31507;51.494;7.518;2023-09-30T05:31:00;10.10;99.90
45807;DHT22;31507;51.494;7.518;2023-09-30T05:33:26;10.10;99.90
45807;DHT22;31507;51.494;7.518;2023-09-30T05:35:53;10.10;99.90
45807;DHT22;31507;51.494;7.518;2023-09-30T05:38:20;10.10;99.90
45807;DHT22;31507;51.494;7.518;2023-09-30T05:40:45;10.10;99.90
45807;DHT22;31507;51.494;7.518;2023-09-30T05:43:11;10.10;99.90
45807;DHT22;31507;51.494;7.518;2023-09-30T05:45:39;10.10;99.90
45807;DHT22;31507;51.494;7.518;2023-09-30T05:48:10;10.10;99.90
45807;DHT22;31507;51.494;7.518;2023-09-30T05:50:35;10.10;99.90
45807;DHT22;31507;51.494;7.518;2023-09-30T05:53:01;10.10;99.90
45807;DHT22;31507;51.494;7.518;2023-09-30T05:55:27;10.10;99.90
45807;DHT22;31507;51.494;7.518;2023-09-30T05:57:53;10.10;99.90
45807;DHT22;31507;51.494;7.518;2023-09-30T06:00:19;10.10;99.90
45807;DHT22;31507;51.494;7.518;2023-09-30T06:02:48;10.20;99.90
45807;DHT22;31507;51.494;7.518;2023-09-30T06:05:14;10.20;99.90
45807;DHT22;31507;51.494;7.518;2023-09-30T06:07:44;10.20;99.90
45807;DHT22;31507;51.494;7.518;2023-09-30T06:10:10;10.20;99.90
45807;DHT22;31507;51.494;7.518;2023-09-30T06:12:36;10.30;99.90
45807;DHT22;31507;51.494;7.518;2023-09-30T06:15:02;10.30;99.90
45807;DHT22;31507;51.494;7.518;2023-09-30T06:17:28;10.40;99.90
45807;DHT22;31507;51.494;7.518;2023-09-30T06:19:53;10.40;99.90
45807;DHT22;31507;51.494;7.518;2023-09-30T06:22:20;10.40;99.90
45807;DHT22;31507;51.494;7.518;2023-09-30T06:24:46;10.50;99.90
45807;DHT22;31507;51.494;7.518;2023-09-30T06:27:13;10.50;99.90
45807;DHT22;31507;51.494;7.518;2023-09-30T06:29:39;10.60;99.90
45807;DHT22;31507;51.494;7.518;2023-09-30T06:32:06;10.60;99.90
45807;DHT22;31507;51.494;7.518;2023-09-30T06:34:32;10.60;99.90
45807;DHT22;31507;51.494;7.518;2023-09-30T06:36:59;10.70;99.90
45807;DHT22;31507;51.494;7.518;2023-09-30T06:39:25;10.70;99.90
45807;DHT22;31507;51.494;7.518;2023-09-30T06:41:50;10.90;99.90
45807;DHT22;31507;51.494;7.518;2023-09-30T06:44:16;11.00;99.90
45807;DHT22;31507;51.494;7.518;2023-09-30T06:46:42;11.00;99.90
45807;DHT22;31507;51.494;7.518;2023-09-30T06:49:08;11.20;99.90
45807;DHT22;31507;51.494;7.518;2023-09-30T06:51:34;11.20;99.90
45807;DHT22;31507;51.494;7.518;2023-09-30T06:53:59;11.40;99.90
45807;DHT22;31507;51.494;7.518;2023-09-30T06:56:25;11.40;99.90
45807;DHT22;31507;51.494;7.518;2023-09-30T06:58:52;11.50;99.90
45807;DHT22;31507;51.494;7.518;2023-09-30T07:01:17;11.60;99.90
45807;DHT22;31507;51.494;7.518;2023-09-30T07:03:43;11.70;99.90
45807;DHT22;31507;51.494;7.518;2023-09-30T07:06:09;11.90;99.90
45807;DHT22;31507;51.494;7.518;2023-09-30T07:08:34;12.00;99.90
45807;DHT22;31507;51.494;7.518;2023-09-30T07:10:59;12.10;99.90
45807;DHT22;31507;51.494;7.518;2023-09-30T07:13:25;12.20;99.90
45807;DHT22;31507;51.494;7.518;2023-09-30T07:15:51;12.30;99.90
45807;DHT22;31507;51.494;7.518;2023-09-30T07:18:16;12.40;99.90
45807;DHT22;31507;51.494;7.518;2023-09-30T07:20:42;12.70;99.90
45807;DHT22;31507;51.494;7.518;2023-09-30T07:23:07;12.90;99.90
45807;DHT22;31507;51.494;7.518;2023-09-30T07:25:34;13.10;99.90
45807;DHT22;31507;51.494;7.518;2023-09-30T07:28:01;13.50;99.90
45807;DHT22;31507;51.494;7.518;2023-09-30T07:30:26;13.60;99.90
45807;DHT22;31507;51.494;7.518;2023-09-30T07:32:52;13.90;99.90
45807;DHT22;31507;51.494;7.518;2023-09-30T07:35:17;14.10;99.90
45807;DHT22;31507;51.494;7.518;2023-09-30T07:37:43;14.30;99.90
45807;DHT22;31507;51.494;7.518;2023-09-30T07:40:09;14.30;99.90
45807;DHT22;31507;51.494;7.518;2023-09-30T07:42:35;14.40;99.90
45807;DHT22;31507;51.494;7.518;2023-09-30T07:45:02;14.40;99.90
45807;DHT22;31507;51.494;7.518;2023-09-30T07:47:29;14.50;99.90
45807;DHT22;31507;51.494;7.518;2023-09-30T07:49:55;14.70;99.90
45807;DHT22;31507;51.494;7.518;2023-09-30T07:52:21;14.80;99.90
45807;DHT22;31507;51.494;7.518;2023-09-30T07:54:47;14.80;99.90
45807;DHT22;31507;51.494;7.518;2023-09-30T07:57:13;15.00;99.90
45807;DHT22;31507;51.494;7.518;2023-09-30T07:59:38;15.10;99.90
45807;DHT22;31507;51.494;7.518;2023-09-30T08:02:04;15.30;99.90
45807;DHT22;31507;51.494;7.518;2023-09-30T08:04:30;15.40;99.90
45807;DHT22;31507;51.494;7.518;2023-09-30T08:06:56;15.50;99.90
45807;DHT22;31507;51.494;7.518;2023-09-30T08:09:21;15.70;99.90
45807;DHT22;31507;51.494;7.518;2023-09-30T08:11:49;15.90;99.90
45807;DHT22;31507;51.494;7.518;2023-09-30T08:14:15;15.90;99.90
45807;DHT22;31507;51.494;7.518;2023-09-30T08:16:41;16.00;99.90
45807;DHT22;31507;51.494;7.518;2023-09-30T08:19:08;16.20;99.90
45807;DHT22;31507;51.494;7.518;2023-09-30T08:21:34;16.40;99.90
45807;DHT22;31507;51.494;7.518;2023-09-30T08:24:01;16.70;99.90
45807;DHT22;31507;51.494;7.518;2023-09-30T08:26:28;16.90;99.90
45807;DHT22;31507;51.494;7.518;2023-09-30T08:28:53;17.20;99.90
45807;DHT22;31507;51.494;7.518;2023-09-30T08:31:19;17.30;99.90
45807;DHT22;31507;51.494;7.518;2023-09-30T08:33:45;17.50;99.90
45807;DHT22;31507;51.494;7.518;2023-09-30T08:36:11;17.50;99.90
45807;DHT22;31507;51.494;7.518;2023-09-30T08:38:40;17.60;99.90
45807;DHT22;31507;51.494;7.518;2023-09-30T08:41:06;17.80;99.90
45807;DHT22;31507;51.494;7.518;2023-09-30T08:43:39;17.90;99.90
45807;DHT22;31507;51.494;7.518;2023-09-30T08:46:05;18.10;99.90
45807;DHT22;31507;51.494;7.518;2023-09-30T08:48:34;18.40;99.90
45807;DHT22;31507;51.494;7.518;2023-09-30T08:51:00;18.70;99.90
45807;DHT22;31507;51.494;7.518;2023-09-30T08:53:26;19.00;99.90
45807;DHT22;31507;51.494;7.518;2023-09-30T08:55:54;19.20;99.90
45807;DHT22;31507;51.494;7.518;2023-09-30T08:58:21;19.30;99.90
45807;DHT22;31507;51.494;7.518;2023-09-30T09:00:48;19.60;99.90
45807;DHT22;31507;51.494;7.518;2023-09-30T09:03:14;19.90;99.90
45807;DHT22;31507;51.494;7.518;2023-09-30T09:05:40;20.10;99.90
45807;DHT22;31507;51.494;7.518;2023-09-30T09:08:06;20.00;99.90
45807;DHT22;31507;51.494;7.518;2023-09-30T09:10:31;20.10;99.90
45807;DHT22;31507;51.494;7.518;2023-09-30T09:12:57;20.20;99.90
45807;DHT22;31507;51.494;7.518;2023-09-30T09:15:27;20.50;99.90
45807;DHT22;31507;51.494;7.518;2023-09-30T09:17:56;20.80;99.90
45807;DHT22;31507;51.494;7.518;2023-09-30T09:20:22;20.90;99.90
45807;DHT22;31507;51.494;7.518;2023-09-30T09:22:49;20.90;99.90
45807;DHT22;31507;51.494;7.518;2023-09-30T09:25:16;20.90;99.90
45807;DHT22;31507;51.494;7.518;2023-09-30T09:27:41;20.70;99.90
45807;DHT22;31507;51.494;7.518;2023-09-30T09:30:14;20.30;99.90
45807;DHT22;31507;51.494;7.518;2023-09-30T09:32:50;20.70;99.90
45807;DHT22;31507;51.494;7.518;2023-09-30T09:35:19;20.90;99.90
45807;DHT22;31507;51.494;7.518;2023-09-30T09:37:48;21.30;99.90
45807;DHT22;31507;51.494;7.518;2023-09-30T09:40:21;21.70;99.90
45807;DHT22;31507;51.494;7.518;2023-09-30T09:42:47;21.90;99.90
45807;DHT22;31507;51.494;7.518;2023-09-30T09:45:15;22.00;99.90
45807;DHT22;31507;51.494;7.518;2023-09-30T09:47:41;22.30;99.90
45807;DHT22;31507;51.494;7.518;2023-09-30T09:50:07;22.40;99.90
45807;DHT22;31507;51.494;7.518;2023-09-30T09:52:34;21.80;99.90
45807;DHT22;31507;51.494;7.518;2023-09-30T09:54:59;20.80;99.90
45807;DHT22;31507;51.494;7.518;2023-09-30T09:57:26;19.70;99.90
45807;DHT22;31507;51.494;7.518;2023-09-30T09:59:52;19.20;99.90
45807;DHT22;31507;51.494;7.518;2023-09-30T10:02:19;18.50;99.90
45807;DHT22;31507;51.494;7.518;2023-09-30T10:04:45;17.90;99.90
45807;DHT22;31507;51.494;7.518;2023-09-30T10:07:16;17.90;99.90
45807;DHT22;31507;51.494;7.518;2023-09-30T10:09:45;18.90;99.90
45807;DHT22;31507;51.494;7.518;2023-09-30T10:12:12;20.10;99.90
45807;DHT22;31507;51.494;7.518;2023-09-30T10:14:38;20.70;99.90
45807;DHT22;31507;51.494;7.518;2023-09-30T10:17:03;21.40;99.90
45807;DHT22;31507;51.494;7.518;2023-09-30T10:19:29;21.80;99.90
45807;DHT22;31507;51.494;7.518;2023-09-30T10:24:40;22.30;98.50
45807;DHT22;31507;51.494;7.518;2023-09-30T10:29:46;22.90;99.90
45807;DHT22;31507;51.494;7.518;2023-09-30T10:32:12;23.10;96.70
45807;DHT22;31507;51.494;7.518;2023-09-30T10:34:38;23.20;97.10
45807;DHT22;31507;51.494;7.518;2023-09-30T10:37:21;23.20;96.30
45807;DHT22;31507;51.494;7.518;2023-09-30T10:39:53;23.40;94.10
45807;DHT22;31507;51.494;7.518;2023-09-30T10:45:05;23.50;97.80
45807;DHT22;31507;51.494;7.518;2023-09-30T10:49:56;22.90;99.40
45807;DHT22;31507;51.494;7.518;2023-09-30T10:52:22;23.10;99.90
45807;DHT22;31507;51.494;7.518;2023-09-30T10:54:48;23.30;99.90
45807;DHT22;31507;51.494;7.518;2023-09-30T10:57:15;23.30;99.30
45807;DHT22;31507;51.494;7.518;2023-09-30T11:00:04;23.40;97.60
45807;DHT22;31507;51.494;7.518;2023-09-30T11:02:33;23.40;96.80
45807;DHT22;31507;51.494;7.518;2023-09-30T11:05:08;23.30;98.80
45807;DHT22;31507;51.494;7.518;2023-09-30T11:07:33;23.60;99.90
45807;DHT22;31507;51.494;7.518;2023-09-30T11:10:01;22.70;97.30
45807;DHT22;31507;51.494;7.518;2023-09-30T11:12:28;21.80;96.80
45807;DHT22;31507;51.494;7.518;2023-09-30T11:15:03;21.30;98.40
45807;DHT22;31507;51.494;7.518;2023-09-30T11:17:29;20.60;99.90
45807;DHT22;31507;51.494;7.518;2023-09-30T11:19:55;20.20;99.90
45807;DHT22;31507;51.494;7.518;2023-09-30T11:22:21;20.50;99.90
45807;DHT22;31507;51.494;7.518;2023-09-30T11:24:47;20.30;99.90
45807;DHT22;31507;51.494;7.518;2023-09-30T11:27:21;20.10;99.90
45807;DHT22;31507;51.494;7.518;2023-09-30T11:29:49;20.60;99.90
45807;DHT22;31507;51.494;7.518;2023-09-30T11:32:25;20.50;99.90
45807;DHT22;31507;51.494;7.518;2023-09-30T11:34:54;20.10;99.10
45807;DHT22;31507;51.494;7.518;2023-09-30T11:37:20;20.60;99.90
45807;DHT22;31507;51.494;7.518;2023-09-30T11:39:47;21.10;97.00
45807;DHT22;31507;51.494;7.518;2023-09-30T11:42:18;21.30;98.30
45807;DHT22;31507;51.494;7.518;2023-09-30T11:44:45;21.60;95.00
45807;DHT22;31507;51.494;7.518;2023-09-30T11:47:13;21.70;97.10
45807;DHT22;31507;51.494;7.518;2023-09-30T11:49:40;21.90;99.90
45807;DHT22;31507;51.494;7.518;2023-09-30T11:52:07;21.80;96.00
45807;DHT22;31507;51.494;7.518;2023-09-30T11:54:34;21.90;99.00
45807;DHT22;31507;51.494;7.518;2023-09-30T11:57:00;22.20;96.80
45807;DHT22;31507;51.494;7.518;2023-09-30T11:59:26;22.20;93.90
45807;DHT22;31507;51.494;7.518;2023-09-30T12:01:53;22.20;97.00
45807;DHT22;31507;51.494;7.518;2023-09-30T12:04:19;22.00;99.00
45807;DHT22;31507;51.494;7.518;2023-09-30T12:06:45;22.00;94.10
45807;DHT22;31507;51.494;7.518;2023-09-30T12:09:12;21.90;99.20
45807;DHT22;31507;51.494;7.518;2023-09-30T12:11:40;21.70;99.80
45807;DHT22;31507;51.494;7.518;2023-09-30T12:14:12;21.10;96.20
45807;DHT22;31507;51.494;7.518;2023-09-30T12:16:38;21.00;99.90
45807;DHT22;31507;51.494;7.518;2023-09-30T12:19:04;21.20;98.60
45807;DHT22;31507;51.494;7.518;2023-09-30T12:21:31;21.50;93.80
45807;DHT22;31507;51.494;7.518;2023-09-30T12:24:03;21.10;98.00
45807;DHT22;31507;51.494;7.518;2023-09-30T12:26:42;20.50;97.30
45807;DHT22;31507;51.494;7.518;2023-09-30T12:29:07;20.20;98.10
45807;DHT22;31507;51.494;7.518;2023-09-30T12:31:35;20.40;95.90
45807;DHT22;31507;51.494;7.518;2023-09-30T12:34:03;20.60;96.30
45807;DHT22;31507;51.494;7.518;2023-09-30T12:36:29;20.90;98.30
45807;DHT22;31507;51.494;7.518;2023-09-30T12:38:54;21.10;99.90
45807;DHT22;31507;51.494;7.518;2023-09-30T12:41:20;21.00;97.20
45807;DHT22;31507;51.494;7.518;2023-09-30T12:43:46;21.20;94.30
45807;DHT22;31507;51.494;7.518;2023-09-30T12:46:11;21.40;93.40
45807;DHT22;31507;51.494;7.518;2023-09-30T12:48:39;21.20;92.90
45807;DHT22;31507;51.494;7.518;2023-09-30T12:51:04;21.20;95.10
45807;DHT22;31507;51.494;7.518;2023-09-30T12:53:32;21.20;92.80
45807;DHT22;31507;51.494;7.518;2023-09-30T12:55:58;21.20;99.40
45807;DHT22;31507;51.494;7.518;2023-09-30T12:58:25;21.20;95.60
45807;DHT22;31507;51.494;7.518;2023-09-30T13:01:00;21.20;99.90
45807;DHT22;31507;51.494;7.518;2023-09-30T13:03:26;21.20;96.10
45807;DHT22;31507;51.494;7.518;2023-09-30T13:05:52;21.30;99.90
45807;DHT22;31507;51.494;7.518;2023-09-30T13:08:23;21.30;99.90
45807;DHT22;31507;51.494;7.518;2023-09-30T13:10:51;21.20;97.90
45807;DHT22;31507;51.494;7.518;2023-09-30T13:13:18;21.10;96.60
45807;DHT22;31507;51.494;7.518;2023-09-30T13:15:44;21.10;98.00
45807;DHT22;31507;51.494;7.518;2023-09-30T13:18:10;21.10;99.90
45807;DHT22;31507;51.494;7.518;2023-09-30T13:20:35;21.00;95.50
45807;DHT22;31507;51.494;7.518;2023-09-30T13:23:01;20.80;96.40
45807;DHT22;31507;51.494;7.518;2023-09-30T13:25:28;20.90;95.30
45807;DHT22;31507;51.494;7.518;2023-09-30T13:27:54;21.00;95.60
45807;DHT22;31507;51.494;7.518;2023-09-30T13:30:19;21.10;95.40
45807;DHT22;31507;51.494;7.518;2023-09-30T13:32:46;21.20;95.80
45807;DHT22;31507;51.494;7.518;2023-09-30T13:35:12;21.20;95.30
45807;DHT22;31507;51.494;7.518;2023-09-30T13:37:38;21.10;93.00
45807;DHT22;31507;51.494;7.518;2023-09-30T13:40:04;21.30;97.60
45807;DHT22;31507;51.494;7.518;2023-09-30T13:42:30;21.40;95.70
45807;DHT22;31507;51.494;7.518;2023-09-30T13:44:57;21.50;98.80
45807;DHT22;31507;51.494;7.518;2023-09-30T13:47:23;21.40;94.60
45807;DHT22;31507;51.494;7.518;2023-09-30T13:49:51;21.30;91.90
45807;DHT22;31507;51.494;7.518;2023-09-30T13:52:16;21.00;96.80
45807;DHT22;31507;51.494;7.518;2023-09-30T13:54:43;20.90;99.90
45807;DHT22;31507;51.494;7.518;2023-09-30T13:57:14;20.70;94.50
45807;DHT22;31507;51.494;7.518;2023-09-30T13:59:40;20.60;97.40
45807;DHT22;31507;51.494;7.518;2023-09-30T14:02:07;20.60;93.50
45807;DHT22;31507;51.494;7.518;2023-09-30T14:04:33;20.50;92.70
45807;DHT22;31507;51.494;7.518;2023-09-30T14:07:01;20.30;94.30
45807;DHT22;31507;51.494;7.518;2023-09-30T14:09:31;20.40;94.50
45807;DHT22;31507;51.494;7.518;2023-09-30T14:11:57;20.40;93.30
45807;DHT22;31507;51.494;7.518;2023-09-30T14:14:24;20.20;99.50
45807;DHT22;31507;51.494;7.518;2023-09-30T14:16:49;20.20;98.30
45807;DHT22;31507;51.494;7.518;2023-09-30T14:19:15;20.20;95.80
45807;DHT22;31507;51.494;7.518;2023-09-30T14:21:40;20.20;94.80
45807;DHT22;31507;51.494;7.518;2023-09-30T14:24:06;20.30;95.90
45807;DHT22;31507;51.494;7.518;2023-09-30T14:26:32;20.30;95.00
45807;DHT22;31507;51.494;7.518;2023-09-30T14:28:58;20.00;99.90
45807;DHT22;31507;51.494;7.518;2023-09-30T14:31:24;20.10;99.80
45807;DHT22;31507;51.494;7.518;2023-09-30T14:33:49;20.30;99.90
45807;DHT22;31507;51.494;7.518;2023-09-30T14:36:16;20.30;99.20
45807;DHT22;31507;51.494;7.518;2023-09-30T14:38:43;20.20;98.70
45807;DHT22;31507;51.494;7.518;2023-09-30T14:41:10;20.10;97.40
45807;DHT22;31507;51.494;7.518;2023-09-30T14:43:38;20.20;93.10
45807;DHT22;31507;51.494;7.518;2023-09-30T14:46:05;20.10;95.80
45807;DHT22;31507;51.494;7.518;2023-09-30T14:48:30;20.10;96.30
45807;DHT22;31507;51.494;7.518;2023-09-30T14:50:56;20.20;95.30
45807;DHT22;31507;51.494;7.518;2023-09-30T14:53:22;20.20;95.30
45807;DHT22;31507;51.494;7.518;2023-09-30T14:55:47;20.10;95.80
45807;DHT22;31507;51.494;7.518;2023-09-30T14:58:13;20.20;94.10
45807;DHT22;31507;51.494;7.518;2023-09-30T15:00:39;20.20;95.30
45807;DHT22;31507;51.494;7.518;2023-09-30T15:03:04;20.20;94.50
45807;DHT22;31507;51.494;7.518;2023-09-30T15:05:31;20.00;98.20
45807;DHT22;31507;51.494;7.518;2023-09-30T15:07:56;20.00;99.30
45807;DHT22;31507;51.494;7.518;2023-09-30T15:10:22;19.70;96.90
45807;DHT22;31507;51.494;7.518;2023-09-30T15:12:47;19.60;98.40
45807;DHT22;31507;51.494;7.518;2023-09-30T15:15:13;19.30;98.00
45807;DHT22;31507;51.494;7.518;2023-09-30T15:17:39;19.10;99.80
45807;DHT22;31507;51.494;7.518;2023-09-30T15:20:05;18.90;99.90
45807;DHT22;31507;51.494;7.518;2023-09-30T15:22:32;18.70;99.90
45807;DHT22;31507;51.494;7.518;2023-09-30T15:24:57;18.50;97.80
45807;DHT22;31507;51.494;7.518;2023-09-30T15:27:23;18.30;99.90
45807;DHT22;31507;51.494;7.518;2023-09-30T15:29:50;18.00;99.90
45807;DHT22;31507;51.494;7.518;2023-09-30T15:32:15;17.90;99.90
45807;DHT22;31507;51.494;7.518;2023-09-30T15:34:42;17.90;99.90
45807;DHT22;31507;51.494;7.518;2023-09-30T15:37:08;17.90;99.90